Terminal Aerodrome Forecast
Issued by NWS

Home | Current Version | Previous Version | Text Only | Print | Product List | Glossary On
Versions: 1 2 3 4 5 6 7 8 9 10 11 12 13 14 15 16
242
FTUS45 KVEF 272320
TAFBIH
TAF
KBIH 272320Z 2800/2824 34011KT P6SM SCT100
      TEMPO 2800/2802 34014G23KT
     FM280500 32008KT P6SM FEW100 SCT150
     FM281000 VRB05KT P6SM FEW100
     FM281900 16012G20KT P6SM VCTS SCT100CB BKN150=

USA.gov is the U.S. government's official web portal to all federal, state and local government web resources and services.